Flight Track Log - Related Links

Times and Time Zones

All times are in EDT time to prevent confusion due to time zone crossing. See the CSC8554 flight status page for this flight to view local times or setup timezone preferences in your user account.

Time Position Orientation Groundspeed Altitude Reporting Facility
EDT Latitude Longitude Course Direction KTS MPH feet Rate Location/Type
Fri 07:00:00 AM 43.5329 88.1655 127° Southeast  Level Estimated
Fri 07:01:00 AM 43.4702 88.2798 127° Southeast  Level Estimated
Fri 07:02:00 AM 43.4073 88.3939 127° Southeast  Level Estimated
Fri 07:03:00 AM 43.3443 88.5078 127° Southeast  Level Estimated
Fri 07:04:00 AM 43.2812 88.6215 127° Southeast  Level Estimated
Fri 07:05:00 AM 43.2180 88.7349 127° Southeast  Level Estimated
Fri 07:06:00 AM 43.1547 88.8481 127° Southeast  Level Estimated
Fri 07:07:00 AM 43.0912 88.9610 128° Southeast  Level Estimated
Fri 07:08:00 AM 43.0277 89.0737 128° Southeast  Level Estimated
Fri 07:09:00 AM 42.9640 89.1862 128° Southeast  Level Estimated
Fri 07:10:00 AM 42.9002 89.2985 128° Southeast  Level Estimated
Fri 07:11:00 AM 42.8364 89.4105 128° Southeast  Level Estimated
Fri 07:12:00 AM 42.7724 89.5223 128° Southeast  Level Estimated
Fri 07:13:00 AM 42.7083 89.6338 128° Southeast  Level Estimated
Fri 07:14:00 AM 42.6441 89.7451 128° Southeast  Level Estimated
Fri 07:15:00 AM 42.5798 89.8562 128° Southeast  Level Estimated
Fri 07:16:00 AM 42.5153 89.9671 128° Southeast  Level Estimated
Fri 07:17:00 AM 42.4508 90.0777 128° Southeast  Level Estimated
Fri 07:18:00 AM 42.3862 90.1881 128° Southeast  Level Estimated
Fri 07:19:00 AM 42.3214 90.2983 128° Southeast  Level Estimated
Fri 07:20:00 AM 42.2566 90.4083 129° Southeast  Level Estimated
Fri 07:21:00 AM 42.1917 90.5180 129° Southeast  Level Estimated
Fri 07:22:00 AM 42.1266 90.6275 129° Southeast  Level Estimated
Fri 07:23:00 AM 42.0614 90.7368 129° Southeast  Level Estimated
Fri 07:24:00 AM 41.9962 90.8458 129° Southeast  Level Estimated
Fri 07:25:00 AM 41.9308 90.9547 129° Southeast  Level Estimated
Fri 07:26:00 AM 41.8653 91.0633 129° Southeast  Level Estimated
Fri 07:27:00 AM 41.7998 91.1717 129° Southeast  Level Estimated
Fri 07:28:00 AM 41.7341 91.2798 129° Southeast  Level Estimated
Fri 07:29:00 AM 41.6683 91.3878 129° Southeast  Level Estimated
Fri 07:30:00 AM 41.6025 91.4955 129° Southeast  Level Estimated
Fri 07:31:00 AM 41.5365 91.6030 129° Southeast  Level Estimated
Fri 07:32:00 AM 41.4704 91.7103 129° Southeast  Level Estimated
Fri 07:33:00 AM 41.4043 91.8173 129° Southeast  Level Estimated
Fri 07:34:00 AM 41.3380 91.9242 130° Southeast  Level Estimated
Fri 07:35:00 AM 41.2716 92.0308 130° Southeast  Level Estimated
Fri 07:36:00 AM 41.2052 92.1372 130° Southeast  Level Estimated
Fri 07:37:00 AM 41.1386 92.2434 130° Southeast  Level Estimated
Fri 07:38:00 AM 41.0719 92.3494 130° Southeast  Level Estimated
Fri 07:39:00 AM 41.0052 92.4552 130° Southeast  Level Estimated
Fri 07:40:00 AM 40.9383 92.5607 130° Southeast  Level Estimated
Fri 07:41:00 AM 40.8714 92.6661 130° Southeast  Level Estimated
Fri 07:42:00 AM 40.8043 92.7712 130° Southeast  Level Estimated
Fri 07:43:00 AM 40.7372 92.8761 130° Southeast  Level Estimated
Fri 07:44:00 AM 40.6699 92.9808 130° Southeast  Level Estimated
Fri 07:45:00 AM 40.6026 93.0853 130° Southeast  Level Estimated
Fri 07:46:00 AM 40.5352 93.1896 130° Southeast  Level Estimated
Fri 07:47:00 AM 40.4677 93.2936 130° Southeast  Level Estimated
Fri 07:48:00 AM 40.4000 93.3975 131° Southeast  Level Estimated
Fri 07:49:00 AM 40.3323 93.5011 131° Southeast  Level Estimated
Fri 07:50:00 AM 40.2645 93.6046 131° Southeast  Level Estimated
Fri 07:51:00 AM 40.1967 93.7078 131° Southeast  Level Estimated
Fri 07:52:00 AM 40.1287 93.8108 131° Southeast  Level Estimated
Fri 07:53:00 AM 40.0606 93.9137 131° Southeast  Level Estimated
Fri 07:54:00 AM 39.9924 94.0163 131° Southeast  Level Estimated
Fri 07:55:00 AM 39.9242 94.1187 131° Southeast  Level Estimated
Fri 07:56:00 AM 39.8558 94.2209 131° Southeast  Level Estimated
Fri 07:57:00 AM 39.7874 94.3229 131° Southeast  Level Estimated
Fri 07:58:00 AM 39.7189 94.4247 131° Southeast  Level Estimated
Fri 07:59:00 AM 39.6503 94.5263 131° Southeast  Level Estimated
Fri 08:00:00 AM 39.5816 94.6277 131° Southeast  Level Estimated
Fri 08:01:00 AM 39.5128 94.7289 131° Southeast  Level Estimated
Fri 08:02:00 AM 39.4439 94.8299 131° Southeast  Level Estimated
Fri 08:03:00 AM 39.3750 94.9307 131° Southeast  Level Estimated
Fri 08:04:00 AM 39.3059 95.0313 132° Southeast  Level Estimated
Fri 08:05:00 AM 39.2368 95.1317 132° Southeast  Level Estimated
Fri 08:06:00 AM 39.1675 95.2319 132° Southeast  Level Estimated
Fri 08:07:00 AM 39.0983 95.3319 132° Southeast  Level Estimated
Fri 08:08:00 AM 39.0289 95.4317 132° Southeast  Level Estimated
Fri 08:09:00 AM 38.9594 95.5313 132° Southeast  Level Estimated
Fri 08:10:00 AM 38.8898 95.6307 132° Southeast  Level Estimated
Fri 08:11:00 AM 38.8202 95.7300 132° Southeast  Level Estimated
Fri 08:12:00 AM 38.7505 95.8290 132° Southeast  Level Estimated
Fri 08:13:00 AM 38.6806 95.9278 132° Southeast  Level Estimated
Fri 08:14:00 AM 38.6107 96.0265 132° Southeast  Level Estimated
Fri 08:15:00 AM 38.5408 96.1249 132° Southeast  Level Estimated
Fri 08:16:00 AM 38.4707 96.2232 132° Southeast  Level Estimated
Fri 08:17:00 AM 38.4006 96.3213 132° Southeast  Level Estimated
Fri 08:18:00 AM 38.3303 96.4191 132° Southeast  Level Estimated
Fri 08:19:00 AM 38.2600 96.5168 132° Southeast  Level Estimated
Fri 08:20:00 AM 38.1897 96.6143 133° Southeast  Level Estimated
Fri 08:21:00 AM 38.1192 96.7116 133° Southeast  Level Estimated
Fri 08:22:00 AM 38.0486 96.8087 133° Southeast  Level Estimated
Fri 08:23:00 AM 37.9780 96.9057 133° Southeast  Level Estimated
Fri 08:24:00 AM 37.9073 97.0024 133° Southeast  Level Estimated
Fri 08:25:00 AM 37.8365 97.0990 133° Southeast  Level Estimated
Fri 08:26:00 AM 37.7657 97.1954 133° Southeast  Level Estimated
Fri 08:27:00 AM 37.6947 97.2916 133° Southeast  Level Estimated
Fri 08:28:00 AM 37.6237 97.3876 133° Southeast  Level Estimated
Fri 08:29:00 AM 37.5526 97.4834 133° Southeast  Level Estimated
Fri 08:30:00 AM 37.4814 97.5790 133° Southeast  Level Estimated
Fri 08:31:00 AM 37.4102 97.6745 133° Southeast  Level Estimated
Fri 08:32:00 AM 37.3388 97.7698 133° Southeast  Level Estimated
Fri 08:33:00 AM 37.2674 97.8649 133° Southeast  Level Estimated
Fri 08:34:00 AM 37.1960 97.9598 133° Southeast  Level Estimated
Fri 08:35:00 AM 37.1244 98.0546 133° Southeast  Level Estimated
Fri 08:36:00 AM 37.0528 98.1491 133° Southeast  Level Estimated
Fri 08:37:00 AM 36.9811 98.2435 134° Southeast  Level Estimated
Fri 08:38:00 AM 36.9093 98.3377 134° Southeast  Level Estimated
Fri 08:39:00 AM 36.8374 98.4317 134° Southeast  Level Estimated
Fri 08:40:00 AM 36.7655 98.5256 134° Southeast  Level Estimated
Fri 08:41:00 AM 36.6935 98.6192 134° Southeast  Level Estimated
Fri 08:42:00 AM 36.6214 98.7127 134° Southeast  Level Estimated
Fri 08:43:00 AM 36.5493 98.8061 134° Southeast  Level Estimated
Fri 08:44:00 AM 36.4771 98.8992 134° Southeast  Level Estimated
Fri 08:45:00 AM 36.4048 98.9922 134° Southeast  Level Estimated
Fri 08:46:00 AM 36.3324 99.0850 134° Southeast  Level Estimated
Fri 08:47:00 AM 36.2600 99.1776 134° Southeast  Level Estimated
Fri 08:48:00 AM 36.1875 99.2701 134° Southeast  Level Estimated
Fri 08:49:00 AM 36.1149 99.3624 134° Southeast  Level Estimated
Fri 08:50:00 AM 36.0422 99.4545 134° Southeast  Level Estimated
Fri 08:51:00 AM 35.9695 99.5464 134° Southeast  Level Estimated
Fri 08:52:00 AM 35.8967 99.6382 134° Southeast  Level Estimated
Fri 08:53:00 AM 35.8239 99.7298 134° Southeast  Level Estimated
Fri 08:54:00 AM 35.7509 99.8213 134° Southeast  Level Estimated
Fri 08:55:00 AM 35.6779 99.9125 135° Southeast  Level Estimated
Fri 08:56:00 AM 35.6049 100.0036 135° Southeast  Level Estimated
Fri 08:57:00 AM 35.5317 100.0946 135° Southeast  Level Estimated
Fri 08:58:00 AM 35.4585 100.1854 135° Southeast  Level Estimated
Fri 08:59:00 AM 35.3853 100.2760 135° Southeast  Level Estimated
Fri 09:00:00 AM 35.3119 100.3664 135° Southeast  Level Estimated
Fri 09:01:00 AM 35.2385 100.4567 135° Southeast  Level Estimated
Fri 09:02:00 AM 35.1651 100.5468 135° Southeast  Level Estimated
Fri 09:03:00 AM 35.0915 100.6368 135° Southeast  Level Estimated
Fri 09:04:00 AM 35.0179 100.7266 135° Southeast  Level Estimated
Fri 09:05:00 AM 34.9442 100.8162 135° Southeast  Level Estimated
Fri 09:06:00 AM 34.8705 100.9057 135° Southeast  Level Estimated
Fri 09:07:00 AM 34.7967 100.9950 135° Southeast  Level Estimated
Fri 09:08:00 AM 34.7228 101.0841 135° Southeast  Level Estimated
Fri 09:09:00 AM 34.6489 101.1731 135° Southeast  Level Estimated
Fri 09:10:00 AM 34.5749 101.2620 135° Southeast  Level Estimated
Fri 09:11:00 AM 34.5008 101.3506 135° Southeast  Level Estimated
Fri 09:12:00 AM 34.4267 101.4391 135° Southeast  Level Estimated
Fri 09:13:00 AM 34.3525 101.5275 135° Southeast  Level Estimated
Fri 09:14:00 AM 34.2783 101.6157 136° Southeast  Level Estimated
Fri 09:15:00 AM 34.2039 101.7038 136° Southeast  Level Estimated
Fri 09:16:00 AM 34.1296 101.7916 136° Southeast  Level Estimated
Fri 09:17:00 AM 34.0551 101.8794 136° Southeast  Level Estimated
Fri 09:18:00 AM 33.9806 101.9670 136° Southeast  Level Estimated
Fri 09:19:00 AM 33.9061 102.0544 136° Southeast  Level Estimated
Fri 09:20:00 AM 33.8314 102.1417 136° Southeast  Level Estimated
Fri 09:21:00 AM 33.7567 102.2288 136° Southeast  Level Estimated
Fri 09:22:00 AM 33.6820 102.3158 136° Southeast  Level Estimated
Fri 09:23:00 AM 33.6072 102.4026 136° Southeast  Level Estimated
Fri 09:24:00 AM 33.5323 102.4893 136° Southeast  Level Estimated
Fri 09:25:00 AM 33.4574 102.5758 136° Southeast  Level Estimated
Fri 09:26:00 AM 33.3824 102.6622 136° Southeast  Level Estimated
Fri 09:27:00 AM 33.3074 102.7484 136° Southeast  Level Estimated
Fri 09:28:00 AM 33.2322 102.8345 136° Southeast  Level Estimated
Fri 09:29:00 AM 33.1571 102.9204 136° Southeast  Level Estimated
Fri 09:30:00 AM 33.0818 103.0062 136° Southeast  Level Estimated
Fri 09:31:00 AM 33.0065 103.0918 136° Southeast  Level Estimated
Fri 09:32:00 AM 32.9312 103.1773 136° Southeast  Level Estimated
Fri 09:33:00 AM 32.8558 103.2626 136° Southeast  Level Estimated
Fri 09:34:00 AM 32.7803 103.3478 136° Southeast  Level Estimated
Fri 09:35:00 AM 32.7048 103.4329 137° Southeast  Level Estimated
Fri 09:36:00 AM 32.6292 103.5178 137° Southeast  Level Estimated
Fri 09:37:00 AM 32.5536 103.6026 137° Southeast  Level Estimated
Fri 09:38:00 AM 32.4779 103.6872 137° Southeast  Level Estimated
Fri 09:39:00 AM 32.4022 103.7717 137° Southeast  Level Estimated
Fri 09:40:00 AM 32.3264 103.8560 137° Southeast  Level Estimated
Fri 09:41:00 AM 32.2505 103.9402 137° Southeast  Level Estimated
Fri 09:42:00 AM 32.1746 104.0243 137° Southeast  Level Estimated
Fri 09:43:00 AM 32.0986 104.1082 137° Southeast  Level Estimated
Fri 09:44:00 AM 32.0226 104.1920 137° Southeast  Level Estimated
Fri 09:45:00 AM 31.9465 104.2756 137° Southeast  Level Estimated
Fri 09:46:00 AM 31.8704 104.3591 137° Southeast  Level Estimated
Fri 09:47:00 AM 31.7942 104.4425 137° Southeast  Level Estimated
Fri 09:48:00 AM 31.7180 104.5257 137° Southeast  Level Estimated
Fri 09:49:00 AM 31.6417 104.6088 137° Southeast  Level Estimated
Fri 09:50:00 AM 31.5653 104.6917 137° Southeast  Level Estimated
Fri 09:51:00 AM 31.4889 104.7745 137° Southeast  Level Estimated
Fri 09:52:00 AM 31.4125 104.8572 137° Southeast  Level Estimated
Fri 09:53:00 AM 31.3360 104.9398 137° Southeast  Level Estimated
Fri 09:54:00 AM 31.2594 105.0222 137° Southeast  Level Estimated
Fri 09:55:00 AM 31.1828 105.1044 137° Southeast  Level Estimated
Fri 09:56:00 AM 31.1061 105.1866 137° Southeast  Level Estimated
Fri 09:57:00 AM 31.0294 105.2686 138° Southeast  Level Estimated
Fri 09:58:00 AM 30.9526 105.3505 138° Southeast  Level Estimated
Fri 09:59:00 AM 30.8758 105.4322 138° Southeast  Level Estimated
Fri 10:00:00 AM 30.7989 105.5138 138° Southeast  Level Estimated
Fri 10:01:00 AM 30.7220 105.5953 138° Southeast  Level Estimated
Fri 10:02:00 AM 30.6450 105.6767 138° Southeast  Level Estimated
Fri 10:03:00 AM 30.5680 105.7579 138° Southeast  Level Estimated
Fri 10:04:00 AM 30.4909 105.8390 138° Southeast  Level Estimated
Fri 10:05:00 AM 30.4138 105.9200 138° Southeast  Level Estimated
Fri 10:06:00 AM 30.3366 106.0008 138° Southeast  Level Estimated
Fri 10:07:00 AM 30.2594 106.0816 138° Southeast  Level Estimated
Fri 10:08:00 AM 30.1821 106.1621 138° Southeast  Level Estimated
Fri 10:09:00 AM 30.1048 106.2426 138° Southeast  Level Estimated
Fri 10:10:00 AM 30.0274 106.3229 138° Southeast  Level Estimated
Fri 10:11:00 AM 29.9500 106.4032 138° Southeast  Level Estimated
Fri 10:12:00 AM 29.8725 106.4832 138° Southeast  Level Estimated
Fri 10:13:00 AM 29.7950 106.5632 138° Southeast  Level Estimated
Fri 10:14:00 AM 29.7194 106.6410 138° Southeast  Level Estimated
Fri 10:15:00 AM 29.7194 106.6410 North  Level Estimated
Fri 10:16:00 AM 29.7194 106.6410 North  Level Estimated
Fri 10:17:00 AM 29.7194 106.6410 North  Level Estimated
Fri 10:18:00 AM 29.7194 106.6410 North  Level Estimated
Fri 10:19:00 AM 29.7194 106.6410 North  Level Estimated
Fri 10:20:00 AM 29.7194 106.6410 North  Level Estimated
Fri 10:21:00 AM 29.7194 106.6410 North  Level Estimated
Fri 10:22:00 AM 29.7194 106.6410 North  Level Estimated
Fri 10:23:00 AM 29.7194 106.6410 North  Level Estimated
Fri 10:24:00 AM 29.7194 106.6410 North  Level Estimated
Fri 10:25:00 AM 29.7194 106.6410 North  Level Estimated
Fri 10:26:00 AM 29.7194 106.6410 North  Level Estimated
Fri 10:27:00 AM 29.7194 106.6410 North  Level Estimated
Fri 10:28:00 AM 29.7194 106.6410 North  Level Estimated
Fri 10:29:00 AM 29.7194 106.6410 North  Level Estimated
Fri 10:30:00 AM 29.7194 106.6410 North  Level Estimated

Login

Don't have an account? Register now (free) for customized features, flight alerts, and more!